Time;durP1;ratioP1;P1;durP2;ratioP2;P2;SDS_P1;SDS_P2;PMS_P1;PMS_P2;Temp;Humidity;BMP_temperature;BMP_pressure;BME280_temperature;BME280_humidity;BME280_pressure;Samples;Min_cycle;Max_cycle;Signal;HPM_P1;HPM_P2
2022/06/18 00:01:33;;;;;;;3.20;1.03;;;16.90;99.90;;;;;;5086849;28;20600;-65
2022/06/18 00:04:10;;;;;;;5.73;1.10;;;16.90;99.90;;;;;;5094706;28;20190;-67
2022/06/18 00:06:55;;;;;;;0.87;0.80;;;17.20;99.90;;;;;;5095633;28;20182;-66
2022/06/18 00:09:41;;;;;;;2.33;0.60;;;17.50;99.90;;;;;;5095190;28;20253;-67
2022/06/18 00:15:31;;;;;;;1.17;0.80;;;17.20;99.90;;;;;;5095580;28;20641;-67
2022/06/18 00:17:59;;;;;;;1.63;0.80;;;17.40;99.90;;;;;;5091280;28;20205;-67
2022/06/18 00:20:29;;;;;;;4.33;0.70;;;17.60;99.90;;;;;;5095075;28;20174;-66
2022/06/18 00:23:00;;;;;;;0.70;0.50;;;17.20;99.90;;;;;;5095320;28;20171;-68
2022/06/18 00:25:30;;;;;;;0.97;0.70;;;17.40;99.90;;;;;;5076755;28;20254;-69
2022/06/18 00:27:58;;;;;;;0.67;0.60;;;17.50;99.90;;;;;;5095428;28;20216;-67
2022/06/18 00:30:29;;;;;;;1.70;0.70;;;17.60;99.90;;;;;;5094894;28;20621;-68
2022/06/18 00:32:56;;;;;;;8.77;0.90;;;17.50;99.90;;;;;;5094895;28;20582;-68
2022/06/18 00:35:24;;;;;;;2.60;1.07;;;17.90;99.90;;;;;;5094902;28;20184;-68
2022/06/18 00:37:59;;;;;;;2.00;0.60;;;18.00;99.90;;;;;;5094709;28;20791;-68
2022/06/18 00:40:39;;;;;;;2.77;0.87;;;18.00;99.90;;;;;;5094853;28;20251;-68
2022/06/18 00:43:16;;;;;;;1.53;0.80;;;18.00;99.90;;;;;;5094757;28;20171;-68
2022/06/18 00:45:44;;;;;;;0.93;0.60;;;18.10;99.90;;;;;;5094717;28;20175;-68
2022/06/18 00:49:07;;;;;;;2.93;0.70;;;18.30;99.90;;;;;;5094474;28;20535;-69
2022/06/18 00:52:08;;;;;;;4.67;0.90;;;18.00;99.90;;;;;;5012632;28;20277;-68
2022/06/18 00:54:54;;;;;;;1.47;0.60;;;18.90;99.90;;;;;;5009839;28;20217;-67
2022/06/18 00:57:37;;;;;;;2.40;0.70;;;19.10;99.90;;;;;;5091840;28;20234;-68
2022/06/18 01:00:07;;;;;;;1.13;0.80;;;18.90;99.90;;;;;;5094399;28;20168;-69
2022/06/18 01:02:40;;;;;;;2.07;0.93;;;19.00;99.90;;;;;;5094544;28;20671;-66
2022/06/18 01:05:23;;;;;;;3.30;0.70;;;19.20;99.90;;;;;;5094241;28;20177;-68
2022/06/18 01:08:03;;;;;;;4.63;0.80;;;19.40;99.90;;;;;;5094127;28;20576;-69
2022/06/18 01:10:37;;;;;;;1.87;0.80;;;19.40;99.90;;;;;;5094309;28;20167;-67
2022/06/18 01:13:10;;;;;;;1.53;0.70;;;19.30;99.90;;;;;;5093324;28;20174;-68
2022/06/18 01:15:39;;;;;;;3.17;0.73;;;19.20;99.90;;;;;;5094173;28;20179;-68
2022/06/18 01:18:07;;;;;;;2.53;0.90;;;19.20;99.90;;;;;;5093712;28;20175;-68
2022/06/18 01:20:51;;;;;;;2.03;0.80;;;19.80;99.90;;;;;;5093868;28;20625;-68
2022/06/18 01:23:25;;;;;;;3.70;1.17;;;19.60;99.90;;;;;;5093761;28;20210;-68
2022/06/18 01:25:54;;;;;;;1.30;0.90;;;20.00;99.90;;;;;;5094062;28;20593;-69
2022/06/18 01:28:22;;;;;;;3.40;0.77;;;20.40;99.90;;;;;;5093709;28;20251;-68
2022/06/18 01:30:49;;;;;;;1.00;0.70;;;20.00;99.90;;;;;;5093726;28;20167;-69
2022/06/18 01:33:18;;;;;;;2.63;0.80;;;20.70;99.90;;;;;;5093731;28;20179;-69
2022/06/18 01:35:49;;;;;;;3.47;0.70;;;20.80;99.90;;;;;;5093589;28;20199;-67
2022/06/18 01:38:17;;;;;;;3.13;0.87;;;20.40;99.90;;;;;;5093397;28;20182;-67
2022/06/18 01:41:49;;;;;;;3.43;1.13;;;20.50;99.90;;;;;;5075792;28;20700;-68
2022/06/18 01:43:49;;;;;;;1.83;0.83;;;20.70;99.90;;;;;;5093270;28;20660;-68
2022/06/18 01:46:17;;;;;;;1.37;0.50;;;20.50;99.90;;;;;;5093507;28;20701;-68
2022/06/18 01:48:47;;;;;;;1.50;0.70;;;20.90;99.90;;;;;;5075663;28;20220;-66
2022/06/18 01:51:23;;;;;;;1.93;1.07;;;20.80;99.90;;;;;;5075474;28;20244;-66
2022/06/18 01:54:02;;;;;;;3.00;0.90;;;20.90;99.90;;;;;;5075253;28;20183;-67
2022/06/18 01:56:43;;;;;;;2.53;0.80;;;20.80;99.90;;;;;;5093227;28;20196;-67
2022/06/18 01:59:22;;;;;;;6.27;0.87;;;21.00;99.90;;;;;;5093115;28;20179;-65
2022/06/18 02:01:50;;;;;;;2.80;0.80;;;21.10;99.90;;;;;;5074984;28;20590;-66
2022/06/18 02:04:20;;;;;;;3.87;1.40;;;21.20;99.90;;;;;;5093241;28;20174;-68
2022/06/18 02:06:49;;;;;;;3.57;0.90;;;20.80;99.90;;;;;;5093221;28;20186;-68
2022/06/18 02:09:46;;;;;;;2.00;0.90;;;20.60;99.90;;;;;;5093220;28;20542;-68
2022/06/18 02:12:21;;;;;;;3.13;1.37;;;20.80;99.90;;;;;;5075270;28;20244;-69
2022/06/18 02:14:53;;;;;;;3.63;1.50;;;21.10;99.90;;;;;;5093081;28;20171;-68
2022/06/18 02:17:21;;;;;;;4.67;0.83;;;21.10;99.90;;;;;;5092903;28;20259;-69
2022/06/18 02:19:59;;;;;;;1.60;0.73;;;21.30;99.90;;;;;;5074821;28;20186;-68
2022/06/18 02:22:36;;;;;;;3.30;1.97;;;21.50;99.90;;;;;;5093324;28;20171;-69
2022/06/18 02:25:05;;;;;;;3.17;0.80;;;22.00;99.90;;;;;;5092659;28;20629;-68
2022/06/18 02:27:32;;;;;;;6.03;0.87;;;22.00;99.90;;;;;;5075304;28;20240;-67
2022/06/18 02:29:59;;;;;;;5.17;1.20;;;21.90;99.90;;;;;;5092784;28;20174;-68
2022/06/18 02:32:38;;;;;;;1.07;0.60;;;21.90;99.90;;;;;;5092843;28;20175;-67
2022/06/18 02:35:16;;;;;;;2.17;1.10;;;21.50;99.90;;;;;;5092854;28;20214;-67
2022/06/18 02:37:45;;;;;;;2.70;1.13;;;20.70;99.90;;;;;;5092764;28;20304;-67
2022/06/18 02:40:25;;;;;;;2.70;0.80;;;20.40;99.90;;;;;;5092787;28;20171;-68
2022/06/18 02:42:56;;;;;;;2.87;1.00;;;20.20;99.90;;;;;;5092932;28;20231;-68
2022/06/18 02:45:25;;;;;;;3.53;1.20;;;19.90;99.90;;;;;;5092712;28;20345;-68
2022/06/18 02:47:57;;;;;;;3.17;1.00;;;19.70;99.90;;;;;;5092442;28;20231;-68
2022/06/18 02:50:31;;;;;;;2.23;0.90;;;19.50;99.90;;;;;;5093053;28;20206;-68
2022/06/18 02:53:02;;;;;;;2.40;0.77;;;19.40;99.90;;;;;;5092778;28;20172;-68
2022/06/18 02:55:35;;;;;;;3.67;0.80;;;19.20;99.90;;;;;;5092782;28;20182;-68
2022/06/18 02:58:17;;;;;;;2.17;0.83;;;19.20;99.90;;;;;;5092762;28;20189;-68
2022/06/18 03:00:47;;;;;;;3.30;1.03;;;19.20;99.90;;;;;;5092455;28;20186;-68
2022/06/18 03:03:16;;;;;;;2.77;1.07;;;19.20;99.90;;;;;;5092944;28;20175;-68
2022/06/18 03:05:44;;;;;;;3.13;0.73;;;19.30;99.90;;;;;;5092483;28;20168;-69
2022/06/18 03:08:12;;;;;;;3.70;1.20;;;20.00;99.90;;;;;;5092657;28;20173;-68
2022/06/18 03:13:26;;;;;;;1.90;0.90;;;21.60;99.90;;;;;;5092886;28;20179;-69
2022/06/18 03:15:55;;;;;;;1.37;0.70;;;22.30;99.90;;;;;;5092527;28;20198;-67
2022/06/18 03:18:26;;;;;;;4.40;0.80;;;21.80;99.90;;;;;;5092365;28;20605;-69
2022/06/18 03:21:17;;;;;;;2.27;0.77;;;21.90;99.90;;;;;;5092477;28;20596;-69
2022/06/18 03:23:45;;;;;;;2.40;0.80;;;21.60;99.90;;;;;;5092652;28;20179;-68
2022/06/18 03:26:16;;;;;;;2.73;0.60;;;20.70;99.90;;;;;;5092267;28;20230;-68
2022/06/18 03:28:44;;;;;;;4.20;1.03;;;20.90;99.90;;;;;;5092802;28;20171;-68
2022/06/18 03:31:12;;;;;;;3.00;0.70;;;21.90;99.90;;;;;;5092584;28;20257;-67
2022/06/18 03:33:41;;;;;;;3.00;0.80;;;22.50;99.90;;;;;;5074143;28;20183;-68
2022/06/18 03:36:11;;;;;;;4.70;0.80;;;23.20;99.90;;;;;;5074971;28;20202;-67
2022/06/18 03:38:38;;;;;;;4.40;0.90;;;22.10;99.90;;;;;;5096027;28;20607;-67
2022/06/18 03:41:08;;;;;;;7.40;0.97;;;22.10;99.90;;;;;;5095979;28;20231;-68
2022/06/18 03:43:35;;;;;;;2.27;0.87;;;22.20;99.90;;;;;;5095962;28;20770;-68
2022/06/18 03:46:11;;;;;;;2.37;0.60;;;22.30;99.90;;;;;;5095571;28;20239;-68
2022/06/18 03:48:58;;;;;;;4.57;0.77;;;22.30;99.90;;;;;;5095804;28;20183;-68
2022/06/18 03:51:27;;;;;;;1.70;0.70;;;22.20;99.90;;;;;;5095629;28;20182;-67
2022/06/18 03:53:55;;;;;;;2.03;0.73;;;21.60;99.90;;;;;;5095933;28;20168;-68
2022/06/18 03:56:25;;;;;;;4.67;0.90;;;21.20;99.90;;;;;;5099655;28;20228;-67
2022/06/18 03:58:54;;;;;;;4.03;1.00;;;21.90;99.90;;;;;;5098946;28;20190;-69
2022/06/18 04:01:28;;;;;;;4.00;0.93;;;22.70;99.90;;;;;;5097015;28;20163;-69
2022/06/18 04:03:55;;;;;;;3.10;0.67;;;23.10;99.90;;;;;;5099947;28;20175;-68
2022/06/18 04:06:23;;;;;;;4.33;1.00;;;23.40;99.90;;;;;;5097556;28;20167;-68
2022/06/18 04:08:52;;;;;;;6.07;0.73;;;23.10;99.90;;;;;;5095178;28;20182;-69
2022/06/18 04:11:19;;;;;;;3.43;1.20;;;23.30;99.90;;;;;;5095361;28;20175;-67
2022/06/18 04:13:47;;;;;;;3.83;1.10;;;23.40;99.90;;;;;;5095399;28;20179;-68
2022/06/18 04:16:14;;;;;;;4.67;0.80;;;23.30;99.90;;;;;;5095105;28;20206;-67
2022/06/18 04:18:43;;;;;;;4.53;0.80;;;22.30;99.90;;;;;;5095317;28;20596;-68
2022/06/18 04:21:11;;;;;;;6.23;1.20;;;21.50;99.90;;;;;;5095296;28;20175;-67
2022/06/18 04:23:39;;;;;;;4.77;1.47;;;20.50;99.90;;;;;;5095286;28;20566;-66
2022/06/18 04:26:07;;;;;;;3.27;1.37;;;20.00;99.90;;;;;;5095095;28;20685;-67
2022/06/18 04:28:39;;;;;;;5.47;1.80;;;19.60;99.90;;;;;;5094912;28;20214;-68
2022/06/18 04:31:07;;;;;;;3.73;1.43;;;19.30;99.90;;;;;;5095307;28;20171;-68
2022/06/18 04:33:35;;;;;;;6.90;2.00;;;18.80;99.90;;;;;;5094963;28;20172;-67
2022/06/18 04:36:02;;;;;;;2.43;1.30;;;18.60;99.90;;;;;;5095123;28;20243;-68
2022/06/18 04:38:29;;;;;;;5.17;1.10;;;18.60;99.90;;;;;;5094739;28;20179;-68
2022/06/18 04:40:57;;;;;;;3.37;1.20;;;18.30;99.90;;;;;;5094799;28;20175;-67
2022/06/18 04:43:25;;;;;;;7.80;1.97;;;18.20;99.90;;;;;;5094770;28;20175;-67
2022/06/18 04:45:52;;;;;;;4.90;1.27;;;18.20;99.90;;;;;;5094906;28;20721;-68
2022/06/18 04:48:20;;;;;;;8.87;1.70;;;18.10;99.90;;;;;;5094611;28;20189;-68
2022/06/18 04:50:47;;;;;;;4.90;1.47;;;19.00;99.90;;;;;;5094776;28;20176;-69
2022/06/18 04:53:14;;;;;;;5.37;1.27;;;19.90;99.90;;;;;;5094457;28;20171;-68
2022/06/18 04:55:42;;;;;;;4.73;1.30;;;20.40;99.90;;;;;;5094491;28;20180;-68
2022/06/18 04:58:10;;;;;;;3.80;1.40;;;20.80;99.90;;;;;;5094281;28;20762;-68
2022/06/18 05:00:38;;;;;;;3.80;1.20;;;21.00;99.90;;;;;;5076478;28;20186;-67
2022/06/18 05:03:06;;;;;;;6.17;1.87;;;21.00;99.90;;;;;;5094477;28;20178;-68
2022/06/18 05:05:33;;;;;;;6.13;2.90;;;21.20;99.90;;;;;;5094540;28;20571;-67
2022/06/18 05:08:00;;;;;;;9.47;3.70;;;20.80;99.90;;;;;;5094604;28;20315;-70
2022/06/18 05:10:28;;;;;;;9.17;2.20;;;21.10;99.90;;;;;;5094481;28;20168;-66
2022/06/18 05:12:55;;;;;;;5.63;1.80;;;21.20;99.90;;;;;;5094215;28;20179;-68
2022/06/18 05:15:22;;;;;;;7.40;1.87;;;21.10;99.90;;;;;;5094385;28;20565;-68
2022/06/18 05:17:50;;;;;;;8.17;1.90;;;21.20;99.90;;;;;;5093948;28;20207;-67
2022/06/18 05:20:23;;;;;;;2.33;0.90;;;21.20;99.90;;;;;;5094367;28;20576;-66
2022/06/18 05:22:51;;;;;;;5.97;1.70;;;20.60;99.90;;;;;;5094612;28;20181;-67
2022/06/18 05:25:20;;;;;;;4.30;1.40;;;20.50;99.90;;;;;;5094004;28;20172;-66
2022/06/18 05:27:48;;;;;;;3.37;1.17;;;20.10;99.90;;;;;;5076341;28;20186;-67
2022/06/18 05:30:25;;;;;;;5.40;1.50;;;19.60;99.90;;;;;;5075864;28;20543;-66
2022/06/18 05:32:53;;;;;;;5.77;1.40;;;19.30;99.90;;;;;;5093734;28;20661;-65
2022/06/18 05:35:20;;;;;;;4.20;1.10;;;18.90;99.90;;;;;;5093945;28;20571;-67
2022/06/18 05:37:50;;;;;;;3.20;1.80;;;18.90;99.90;;;;;;5075497;28;20687;-66
2022/06/18 05:40:19;;;;;;;9.63;1.70;;;18.50;99.90;;;;;;5093692;28;20175;-68
2022/06/18 05:42:47;;;;;;;6.07;1.70;;;18.30;99.90;;;;;;5075647;28;20276;-67
2022/06/18 05:45:15;;;;;;;7.07;2.13;;;18.10;99.90;;;;;;5093616;28;20175;-66
2022/06/18 05:47:42;;;;;;;7.17;2.20;;;17.90;99.90;;;;;;5094073;28;20183;-67
2022/06/18 05:50:14;;;;;;;3.17;1.10;;;17.60;99.90;;;;;;5093655;28;20202;-68
2022/06/18 05:52:41;;;;;;;4.20;1.27;;;17.50;99.90;;;;;;5093839;28;20266;-67
2022/06/18 05:55:10;;;;;;;3.67;1.60;;;17.40;99.90;;;;;;5093265;28;20218;-67
2022/06/18 05:57:51;;;;;;;5.27;1.57;;;17.30;99.90;;;;;;5093253;28;20680;-67
2022/06/18 06:00:21;;;;;;;8.23;1.50;;;17.30;99.90;;;;;;5092799;28;20215;-68
2022/06/18 06:02:48;;;;;;;3.77;1.30;;;17.20;99.90;;;;;;5093452;28;20591;-68
2022/06/18 06:05:16;;;;;;;4.43;1.67;;;17.10;99.90;;;;;;5093300;28;20245;-68
2022/06/18 06:07:49;;;;;;;2.97;1.53;;;17.10;99.90;;;;;;5093344;28;20273;-68
2022/06/18 06:13:08;;;;;;;5.93;1.90;;;16.90;99.90;;;;;;5093393;28;20721;-69
2022/06/18 06:15:36;;;;;;;10.73;1.90;;;16.70;99.90;;;;;;5093375;28;20174;-68
2022/06/18 06:18:04;;;;;;;6.53;1.50;;;16.70;99.90;;;;;;5092965;28;20633;-67
2022/06/18 06:20:38;;;;;;;5.00;1.97;;;16.60;99.90;;;;;;5093370;28;20177;-67
2022/06/18 06:23:07;;;;;;;5.30;1.47;;;16.50;99.90;;;;;;5075117;28;20214;-68
2022/06/18 06:25:34;;;;;;;4.87;1.57;;;16.50;99.90;;;;;;5092916;28;20600;-68
2022/06/18 06:28:02;;;;;;;7.30;1.70;;;16.40;99.90;;;;;;5093093;28;20167;-68
2022/06/18 06:30:30;;;;;;;5.97;1.80;;;16.30;99.90;;;;;;5092905;28;20209;-68
2022/06/18 06:32:57;;;;;;;11.57;2.10;;;16.10;99.90;;;;;;5092953;28;20265;-68
2022/06/18 06:35:24;;;;;;;4.60;1.70;;;16.00;99.90;;;;;;5092942;28;20655;-67
2022/06/18 06:37:52;;;;;;;3.90;1.43;;;15.90;99.90;;;;;;5092686;28;20356;-67
2022/06/18 06:40:19;;;;;;;6.60;1.80;;;15.80;99.90;;;;;;5092965;28;20182;-66
2022/06/18 06:42:52;;;;;;;4.73;1.80;;;15.70;99.90;;;;;;5092892;28;20262;-67
2022/06/18 06:45:22;;;;;;;6.40;2.13;;;15.60;99.90;;;;;;5093547;28;20650;-67
2022/06/18 06:47:50;;;;;;;6.50;1.80;;;15.60;99.90;;;;;;5092697;28;20633;-66
2022/06/18 06:50:19;;;;;;;7.53;1.83;;;15.50;99.90;;;;;;5092829;28;20266;-68
2022/06/18 06:52:48;;;;;;;4.70;1.80;;;15.30;99.90;;;;;;5092899;28;20236;-67
2022/06/18 06:58:14;;;;;;;5.80;1.73;;;15.10;99.90;;;;;;5093237;28;20547;-67
2022/06/18 07:00:44;;;;;;;7.43;2.30;;;15.00;99.90;;;;;;5092738;28;20304;-68
2022/06/18 07:03:17;;;;;;;5.30;2.17;;;14.90;99.90;;;;;;5092803;28;20561;-67
2022/06/18 07:05:45;;;;;;;9.63;2.50;;;14.80;99.90;;;;;;5092575;28;20179;-67
2022/06/18 07:08:13;;;;;;;6.87;2.67;;;14.60;99.90;;;;;;5092505;28;20178;-67
2022/06/18 07:10:41;;;;;;;8.17;2.53;;;14.60;99.90;;;;;;5092827;28;20189;-67
2022/06/18 07:13:08;;;;;;;6.30;2.70;;;14.40;99.90;;;;;;5096548;28;20189;-66
2022/06/18 07:15:36;;;;;;;4.43;2.30;;;14.40;99.90;;;;;;5096450;28;20257;-67
2022/06/18 07:18:10;;;;;;;5.80;3.17;;;14.30;99.90;;;;;;5096148;28;20218;-67
2022/06/18 07:20:37;;;;;;;7.23;2.03;;;14.20;99.90;;;;;;5096841;28;20171;-67
2022/06/18 07:23:05;;;;;;;7.10;1.90;;;14.10;99.90;;;;;;5096371;28;20214;-68
2022/06/18 07:25:32;;;;;;;10.47;2.30;;;14.00;99.90;;;;;;5096052;28;20222;-67
2022/06/18 07:27:59;;;;;;;7.97;2.20;;;13.90;99.90;;;;;;5096340;28;20274;-67
2022/06/18 07:30:27;;;;;;;11.93;2.93;;;13.80;99.90;;;;;;5096207;28;20179;-68
2022/06/18 07:32:54;;;;;;;11.17;2.80;;;13.60;99.90;;;;;;5078007;28;20179;-68
2022/06/18 07:35:24;;;;;;;4.43;2.37;;;13.50;99.90;;;;;;5096080;28;20204;-67
2022/06/18 07:37:57;;;;;;;6.97;2.70;;;13.40;99.90;;;;;;5077543;28;20237;-68
2022/06/18 07:40:25;;;;;;;9.03;3.10;;;13.20;99.90;;;;;;5096384;28;20177;-68
2022/06/18 07:42:54;;;;;;;12.50;2.63;;;13.10;99.90;;;;;;5096109;28;20186;-67
2022/06/18 07:45:24;;;;;;;7.80;2.90;;;13.00;99.90;;;;;;5095904;28;20538;-67
2022/06/18 07:47:52;;;;;;;8.37;2.63;;;13.00;99.90;;;;;;5095949;28;20196;-68
2022/06/18 07:50:22;;;;;;;9.60;3.20;;;12.90;99.90;;;;;;5096036;28;20231;-67
2022/06/18 07:52:50;;;;;;;18.97;4.10;;;12.90;99.90;;;;;;5095890;28;20189;-65
2022/06/18 07:55:27;;;;;;;13.33;4.70;;;12.80;99.90;;;;;;5095878;28;20574;-68
2022/06/18 07:57:55;;;;;;;16.40;3.30;;;12.60;99.90;;;;;;5077123;28;20308;-68
2022/06/18 08:00:24;;;;;;;9.07;3.70;;;12.60;99.90;;;;;;5095792;28;20178;-67
2022/06/18 08:02:51;;;;;;;9.43;3.57;;;12.60;99.90;;;;;;5095684;28;20185;-66
2022/06/18 08:05:27;;;;;;;10.40;3.67;;;12.60;99.90;;;;;;5095542;28;20173;-66
2022/06/18 08:07:55;;;;;;;12.67;4.23;;;12.50;99.90;;;;;;5095694;28;20272;-66
2022/06/18 08:10:22;;;;;;;11.23;5.83;;;12.50;99.90;;;;;;5095641;28;20220;-67
2022/06/18 08:12:50;;;;;;;17.70;5.07;;;12.60;99.90;;;;;;5095478;28;20178;-68
2022/06/18 08:15:18;;;;;;;11.57;5.70;;;12.80;99.90;;;;;;5095306;28;20598;-67
2022/06/18 08:17:45;;;;;;;9.67;4.53;;;12.80;99.90;;;;;;5095122;28;20220;-68
2022/06/18 08:20:13;;;;;;;13.80;4.97;;;12.70;99.90;;;;;;5095432;28;20182;-68
2022/06/18 08:22:44;;;;;;;7.63;4.80;;;12.70;99.90;;;;;;5076729;28;20186;-68
2022/06/18 08:25:12;;;;;;;11.83;5.67;;;12.80;99.90;;;;;;5095250;28;20177;-66
2022/06/18 08:27:41;;;;;;;11.53;5.37;;;12.70;99.90;;;;;;5095305;28;20178;-66
2022/06/18 08:30:09;;;;;;;11.80;4.77;;;12.60;99.90;;;;;;5095193;28;20185;-67
2022/06/18 08:32:37;;;;;;;11.10;5.07;;;12.60;99.90;;;;;;5095172;28;20186;-66
2022/06/18 08:35:05;;;;;;;11.77;4.67;;;12.50;99.90;;;;;;5095010;28;20171;-67
2022/06/18 08:37:33;;;;;;;10.60;4.80;;;12.50;99.90;;;;;;5094632;28;20226;-66
2022/06/18 08:40:01;;;;;;;8.77;4.87;;;12.50;99.90;;;;;;5095010;28;20211;-69
2022/06/18 08:42:59;;;;;;;12.47;5.23;;;12.70;99.90;;;;;;5094936;28;20298;-67
2022/06/18 08:45:55;;;;;;;14.23;5.30;;;12.80;99.90;;;;;;5095024;28;20258;-68
2022/06/18 08:48:52;;;;;;;106.23;48.80;;;12.90;99.90;;;;;;5092971;28;20291;-67
2022/06/18 08:51:25;;;;;;;153.70;79.33;;;13.00;99.90;;;;;;5094911;28;20169;-67
2022/06/18 08:54:15;;;;;;;135.97;72.23;;;13.10;99.90;;;;;;5094620;28;20182;-65
2022/06/18 08:56:47;;;;;;;124.70;66.17;;;13.10;99.90;;;;;;5094790;28;20217;-66
2022/06/18 08:59:38;;;;;;;119.73;61.93;;;12.90;99.90;;;;;;5094498;28;20594;-66
2022/06/18 09:02:31;;;;;;;100.53;51.80;;;12.80;99.90;;;;;;5094904;28;20177;-65
2022/06/18 09:05:27;;;;;;;97.93;50.77;;;12.50;99.90;;;;;;5094422;28;20255;-65
2022/06/18 09:07:55;;;;;;;85.97;45.07;;;12.50;99.90;;;;;;5094385;28;20178;-66
2022/06/18 09:10:40;;;;;;;86.90;46.27;;;12.40;99.90;;;;;;5094110;28;20222;-67
2022/06/18 09:13:24;;;;;;;71.97;38.13;;;12.50;99.90;;;;;;5094451;28;20248;-67
2022/06/18 09:15:56;;;;;;;65.23;32.90;;;12.50;99.90;;;;;;5094194;28;20622;-67
2022/06/18 09:18:49;;;;;;;51.37;25.53;;;12.50;99.90;;;;;;5094013;28;20173;-66
2022/06/18 09:21:30;;;;;;;52.33;26.00;;;12.60;99.90;;;;;;5094080;28;20184;-68
2022/06/18 09:24:06;;;;;;;47.27;24.77;;;12.60;99.90;;;;;;5094317;28;20224;-67
2022/06/18 09:26:44;;;;;;;39.13;21.57;;;12.60;99.90;;;;;;5094025;28;20225;-68
2022/06/18 09:29:20;;;;;;;38.80;19.83;;;12.70;99.90;;;;;;5075931;28;20177;-69
2022/06/18 09:31:54;;;;;;;27.97;14.53;;;12.70;99.90;;;;;;5094117;28;20249;-67
2022/06/18 09:34:49;;;;;;;20.57;12.20;;;12.80;99.90;;;;;;5093082;28;20231;-66
2022/06/18 09:37:36;;;;;;;26.13;12.07;;;13.00;99.90;;;;;;5093815;28;20534;-66
2022/06/18 09:40:14;;;;;;;20.37;10.73;;;13.00;99.90;;;;;;5094007;28;20568;-68
2022/06/18 09:42:48;;;;;;;22.53;11.53;;;13.10;99.90;;;;;;5075740;28;20178;-68
2022/06/18 09:45:31;;;;;;;22.40;16.93;;;13.10;99.90;;;;;;5094051;28;20170;-67
2022/06/18 09:48:00;;;;;;;23.40;14.53;;;13.00;99.90;;;;;;5093751;28;20232;-66
2022/06/18 09:50:40;;;;;;;14.87;8.10;;;13.00;99.90;;;;;;5093780;28;20592;-66
2022/06/18 09:53:14;;;;;;;17.03;7.60;;;13.00;99.90;;;;;;5075506;28;20182;-67
2022/06/18 09:55:49;;;;;;;12.80;7.10;;;13.00;99.90;;;;;;5094022;28;20181;-67
2022/06/18 09:58:33;;;;;;;8.57;5.13;;;12.90;99.90;;;;;;5093394;28;20196;-68
2022/06/18 10:01:01;;;;;;;11.13;6.00;;;12.90;99.90;;;;;;5075469;28;20627;-68
2022/06/18 10:09:08;;;;;;;8.13;5.20;;;12.90;99.90;;;;;;5093550;28;20186;-67
2022/06/18 10:11:40;;;;;;;8.43;5.03;;;13.00;99.90;;;;;;5093097;28;20546;-68
2022/06/18 10:14:19;;;;;;;8.23;4.17;;;13.00;99.90;;;;;;5093621;28;20177;-68
2022/06/18 10:17:11;;;;;;;8.20;4.23;;;12.90;99.90;;;;;;5093024;28;20216;-68
2022/06/18 10:19:47;;;;;;;17.63;4.30;;;12.90;99.90;;;;;;5075732;28;20623;-68
2022/06/18 10:22:56;;;;;;;6.80;3.87;;;12.80;99.90;;;;;;5093589;28;20177;-68
2022/06/18 10:25:42;;;;;;;6.97;3.40;;;12.70;99.90;;;;;;5093264;28;20178;-66
2022/06/18 10:28:46;;;;;;;8.30;3.70;;;12.70;99.90;;;;;;5075343;28;20737;-66
2022/06/18 10:31:34;;;;;;;9.37;3.77;;;12.50;99.90;;;;;;5075018;28;20565;-66
2022/06/18 10:34:11;;;;;;;8.03;3.30;;;12.40;99.90;;;;;;5093560;28;20563;-66
2022/06/18 10:37:03;;;;;;;7.30;3.00;;;12.40;99.90;;;;;;5093281;28;20558;-67
2022/06/18 10:39:51;;;;;;;5.13;2.57;;;12.40;99.90;;;;;;5093701;28;20643;-65
2022/06/18 10:42:44;;;;;;;5.27;3.07;;;12.40;99.90;;;;;;5093531;28;20246;-67
2022/06/18 10:45:15;;;;;;;3.90;2.43;;;12.40;99.90;;;;;;5094189;28;20237;-65
2022/06/18 10:47:49;;;;;;;11.80;2.90;;;12.40;99.90;;;;;;5097154;28;20176;-66
2022/06/18 10:50:19;;;;;;;5.37;2.63;;;12.40;99.90;;;;;;5097243;28;20226;-65
2022/06/18 10:52:59;;;;;;;5.30;2.60;;;12.40;99.90;;;;;;5097314;28;20256;-67
2022/06/18 10:55:27;;;;;;;5.17;2.90;;;12.30;99.90;;;;;;5096819;28;20178;-66
2022/06/18 10:57:54;;;;;;;7.00;2.83;;;12.30;99.90;;;;;;5096737;28;20687;-66
2022/06/18 11:00:28;;;;;;;7.67;2.97;;;12.30;99.90;;;;;;5096854;28;20166;-66
2022/06/18 11:03:01;;;;;;;7.70;3.07;;;12.40;99.90;;;;;;5096909;28;20552;-66
2022/06/18 11:05:35;;;;;;;5.80;2.97;;;12.40;99.90;;;;;;5096841;28;20177;-66
2022/06/18 11:08:31;;;;;;;5.60;2.80;;;12.50;99.90;;;;;;5096736;28;20546;-66
2022/06/18 11:11:13;;;;;;;7.37;2.90;;;12.50;99.90;;;;;;5096780;28;20184;-65
2022/06/18 11:13:44;;;;;;;6.30;3.13;;;12.50;99.90;;;;;;5097355;28;20173;-66
2022/06/18 11:16:19;;;;;;;5.20;2.40;;;12.50;99.90;;;;;;5099377;28;20207;-67
2022/06/18 11:19:00;;;;;;;5.63;3.07;;;12.50;99.90;;;;;;5098259;28;20220;-65
2022/06/18 11:21:34;;;;;;;6.10;3.57;;;12.50;99.90;;;;;;5096493;28;20169;-66
2022/06/18 11:24:14;;;;;;;5.77;3.33;;;12.60;99.90;;;;;;5078381;28;20184;-67
2022/06/18 11:27:06;;;;;;;8.67;3.60;;;12.60;99.90;;;;;;5096351;28;20257;-67
2022/06/18 11:29:54;;;;;;;8.27;3.50;;;12.70;99.90;;;;;;5096506;28;20185;-66
2022/06/18 11:32:30;;;;;;;9.50;4.87;;;12.70;99.90;;;;;;5096283;28;20233;-66
2022/06/18 11:35:09;;;;;;;10.43;5.30;;;12.70;99.90;;;;;;5096158;28;20169;-66
2022/06/18 11:37:37;;;;;;;9.43;5.47;;;12.70;99.90;;;;;;5096124;28;20213;-67
2022/06/18 11:40:09;;;;;;;9.43;5.07;;;12.70;99.90;;;;;;5077985;28;20264;-65
2022/06/18 11:42:42;;;;;;;11.23;4.77;;;12.70;99.90;;;;;;5095802;28;20190;-66
2022/06/18 11:45:36;;;;;;;7.47;4.30;;;12.70;99.90;;;;;;5096164;28;20177;-67
2022/06/18 11:48:22;;;;;;;7.33;3.33;;;12.70;99.90;;;;;;5096247;28;20267;-67
2022/06/18 11:51:18;;;;;;;7.93;3.30;;;12.60;99.90;;;;;;5077869;28;20189;-66
2022/06/18 11:53:52;;;;;;;4.73;2.90;;;12.60;99.90;;;;;;5095795;28;20196;-66
2022/06/18 11:56:30;;;;;;;7.53;2.97;;;12.60;99.90;;;;;;5095415;28;20235;-66
2022/06/18 11:59:25;;;;;;;3.50;2.53;;;12.60;99.90;;;;;;5095775;28;20243;-67
2022/06/18 12:02:18;;;;;;;6.43;3.13;;;12.50;99.90;;;;;;5081256;28;20575;-67
2022/06/18 12:04:56;;;;;;;9.87;3.30;;;12.50;99.90;;;;;;5054440;28;20274;-67
2022/06/18 12:07:34;;;;;;;6.37;2.90;;;12.40;99.90;;;;;;5095671;28;20237;-67
2022/06/18 12:10:03;;;;;;;6.73;2.80;;;12.30;99.90;;;;;;5095786;28;20176;-66
2022/06/18 12:12:45;;;;;;;5.80;3.07;;;12.30;99.90;;;;;;5095517;28;20168;-67
2022/06/18 12:15:51;;;;;;;6.03;2.90;;;12.30;99.90;;;;;;5095459;28;20242;-65
2022/06/18 12:18:36;;;;;;;9.80;3.50;;;12.30;99.90;;;;;;5095399;28;20228;-66
2022/06/18 12:21:31;;;;;;;7.17;3.30;;;12.20;99.90;;;;;;5095387;28;20190;-66
2022/06/18 12:24:17;;;;;;;9.57;5.20;;;12.20;99.90;;;;;;5077228;28;20185;-66
2022/06/18 12:26:53;;;;;;;6.90;3.60;;;12.20;99.90;;;;;;5095057;28;20224;-65
2022/06/18 12:29:20;;;;;;;7.47;3.00;;;12.20;99.90;;;;;;5095589;28;20190;-65
2022/06/18 12:31:47;;;;;;;6.97;3.30;;;12.20;99.90;;;;;;5076974;28;20658;-65
2022/06/18 12:34:31;;;;;;;6.17;3.13;;;12.20;99.90;;;;;;5095629;28;20205;-65
2022/06/18 12:37:35;;;;;;;6.50;3.70;;;12.20;99.90;;;;;;5095407;28;20214;-66
2022/06/18 12:40:08;;;;;;;6.00;3.70;;;12.20;99.90;;;;;;5094963;28;20175;-65
2022/06/18 12:43:00;;;;;;;9.20;3.10;;;12.20;99.90;;;;;;5095709;28;20192;-65
2022/06/18 12:45:42;;;;;;;5.63;3.00;;;12.20;99.90;;;;;;5095166;28;20259;-65
2022/06/18 12:48:29;;;;;;;6.90;3.03;;;12.20;99.90;;;;;;5095372;28;20173;-66
2022/06/18 12:51:16;;;;;;;7.67;2.93;;;12.20;99.90;;;;;;5094170;28;20267;-65
2022/06/18 12:54:01;;;;;;;5.07;2.60;;;12.20;99.90;;;;;;5094613;28;20653;-66
2022/06/18 12:56:42;;;;;;;7.17;2.90;;;12.30;99.90;;;;;;5076686;28;20215;-66
2022/06/18 12:59:28;;;;;;;3.77;2.63;;;12.30;99.90;;;;;;5094709;28;20179;-66
2022/06/18 13:02:07;;;;;;;5.13;3.33;;;12.30;99.90;;;;;;5094777;28;20243;-64
2022/06/18 13:04:34;;;;;;;6.07;3.27;;;12.30;99.90;;;;;;5094251;28;20185;-65
2022/06/18 13:07:11;;;;;;;5.33;2.80;;;12.40;99.90;;;;;;5094431;28;20259;-66
2022/06/18 13:10:08;;;;;;;6.33;3.00;;;12.40;99.90;;;;;;5093434;28;20181;-66
2022/06/18 13:12:49;;;;;;;8.37;3.40;;;12.40;99.90;;;;;;5076225;28;20181;-67
2022/06/18 13:15:27;;;;;;;4.83;3.43;;;12.30;99.90;;;;;;5093061;28;20495;-65
2022/06/18 13:18:21;;;;;;;7.87;2.93;;;12.30;99.90;;;;;;5075173;28;20220;-65
2022/06/18 13:20:52;;;;;;;5.63;2.63;;;12.30;99.90;;;;;;5063850;28;20662;-65
2022/06/18 13:29:32;;;;;;;4.77;2.57;;;12.30;99.90;;;;;;5093945;28;20265;-65
2022/06/18 13:32:14;;;;;;;8.50;2.70;;;12.30;99.90;;;;;;5038835;28;20203;-65
2022/06/18 13:34:51;;;;;;;6.23;2.33;;;12.30;99.90;;;;;;5093838;28;20184;-65
2022/06/18 13:37:44;;;;;;;4.60;2.43;;;12.40;99.90;;;;;;5093724;28;20208;-65
2022/06/18 13:41:05;;;;;;;6.60;2.73;;;12.40;99.90;;;;;;5084208;28;20602;-65
2022/06/18 13:43:44;;;;;;;6.07;2.60;;;12.40;99.90;;;;;;4971763;28;20187;-64
2022/06/18 13:46:18;;;;;;;4.37;2.37;;;12.40;99.90;;;;;;5051036;28;20197;-64